Time;durP1;ratioP1;P1;durP2;ratioP2;P2;SDS_P1;SDS_P2;PMS_P1;PMS_P2;Temp;Humidity;BMP_temperature;BMP_pressure;BME280_temperature;BME280_humidity;BME280_pressure;Samples;Min_cycle;Max_cycle;Signal;HPM_P1;HPM_P2
2022/04/11 00:01:23;;;;;;;30.00;15.00;;;6.70;39.60;;;;;;5061726;28;20425;-67
2022/04/11 00:03:49;;;;;;;29.07;15.50;;;6.60;40.10;;;;;;5062424;28;20211;-68
2022/04/11 00:06:15;;;;;;;26.00;14.20;;;6.50;40.50;;;;;;5064236;28;20179;-68
2022/04/11 00:08:40;;;;;;;27.87;14.80;;;6.60;41.10;;;;;;5064228;28;20497;-69
2022/04/11 00:11:06;;;;;;;29.63;16.13;;;6.40;41.60;;;;;;5063552;28;20179;-69
2022/04/11 00:13:33;;;;;;;26.33;14.80;;;6.30;41.70;;;;;;5068827;28;20183;-69
2022/04/11 00:15:59;;;;;;;26.75;15.82;;;6.50;41.60;;;;;;5056582;28;20443;-68
2022/04/11 00:18:25;;;;;;;28.80;16.40;;;7.20;42.20;;;;;;5062181;28;20720;-68
2022/04/11 00:20:50;;;;;;;29.87;15.93;;;6.70;42.10;;;;;;5060390;28;20421;-69
2022/04/11 00:23:16;;;;;;;30.63;15.53;;;6.70;41.30;;;;;;5061030;28;20211;-68
2022/04/11 00:25:42;;;;;;;24.45;14.00;;;6.80;41.30;;;;;;5062433;28;20176;-68
2022/04/11 00:28:08;;;;;;;29.15;15.07;;;6.80;40.80;;;;;;5061687;28;20206;-67
2022/04/11 00:30:34;;;;;;;31.47;16.43;;;6.70;40.30;;;;;;5056690;28;20235;-68
2022/04/11 00:32:59;;;;;;;27.33;14.70;;;7.10;40.80;;;;;;5061754;28;20209;-66
2022/04/11 00:35:25;;;;;;;27.93;16.30;;;6.80;40.00;;;;;;5060314;28;20175;-66
2022/04/11 00:37:51;;;;;;;28.20;14.43;;;7.00;40.50;;;;;;5069752;28;20704;-66
2022/04/11 00:40:17;;;;;;;28.20;14.70;;;6.70;40.80;;;;;;5061920;28;20180;-66
2022/04/11 00:42:43;;;;;;;27.42;15.18;;;6.70;40.30;;;;;;5069027;28;20175;-66
2022/04/11 00:45:09;;;;;;;24.40;13.90;;;6.70;40.20;;;;;;5062683;28;20183;-66
2022/04/11 00:47:35;;;;;;;25.60;14.90;;;6.60;41.10;;;;;;5058500;28;20448;-66
2022/04/11 00:50:07;;;;;;;25.67;14.10;;;6.70;40.10;;;;;;5066491;28;20467;-66
2022/04/11 00:52:35;;;;;;;23.60;14.13;;;6.60;40.60;;;;;;5058844;28;20187;-66
2022/04/11 00:55:02;;;;;;;29.40;14.13;;;6.50;40.80;;;;;;5063381;28;20184;-65
2022/04/11 00:57:28;;;;;;;26.88;15.05;;;6.50;41.10;;;;;;5070171;28;20559;-66
2022/04/11 00:59:55;;;;;;;25.03;15.07;;;6.20;41.30;;;;;;5065364;28;20183;-66
2022/04/11 01:02:21;;;;;;;30.80;16.33;;;6.60;42.20;;;;;;5058952;28;20427;-66
2022/04/11 01:04:46;;;;;;;30.98;15.82;;;6.20;41.90;;;;;;5053690;28;20184;-66
2022/04/11 01:07:12;;;;;;;30.40;15.33;;;6.10;41.90;;;;;;5065843;28;20265;-66
2022/04/11 01:09:38;;;;;;;37.00;18.10;;;6.40;42.00;;;;;;5061896;28;20210;-66
2022/04/11 01:12:04;;;;;;;33.47;20.73;;;6.40;41.80;;;;;;5068534;28;20182;-66
2022/04/11 01:14:30;;;;;;;32.88;18.55;;;6.40;42.50;;;;;;5070140;28;20181;-66
2022/04/11 01:16:59;;;;;;;30.70;17.40;;;6.60;41.50;;;;;;5061800;28;20282;-66
2022/04/11 01:19:26;;;;;;;31.08;19.35;;;6.80;41.20;;;;;;5063452;28;20245;-66
2022/04/11 01:21:52;;;;;;;39.40;20.13;;;6.30;41.70;;;;;;5068825;28;20199;-66
2022/04/11 01:24:21;;;;;;;30.20;17.67;;;6.30;42.40;;;;;;5067029;28;20215;-66
2022/04/11 01:26:48;;;;;;;30.23;16.55;;;6.60;41.80;;;;;;5070319;28;20543;-66
2022/04/11 01:29:15;;;;;;;28.77;16.50;;;6.10;42.00;;;;;;5069650;28;20230;-66
2022/04/11 01:31:41;;;;;;;29.00;17.00;;;5.80;43.80;;;;;;5069946;28;20207;-66
2022/04/11 01:34:07;;;;;;;33.90;17.27;;;5.80;44.00;;;;;;5058238;28;20211;-65
2022/04/11 01:36:32;;;;;;;28.00;17.00;;;5.70;45.20;;;;;;5068774;28;20187;-66
2022/04/11 01:38:58;;;;;;;30.70;16.50;;;5.90;43.20;;;;;;5056958;28;20187;-66
2022/04/11 01:41:24;;;;;;;32.10;17.20;;;6.10;42.80;;;;;;5073331;28;20175;-66
2022/04/11 01:43:49;;;;;;;26.53;16.30;;;6.30;42.30;;;;;;5065154;28;20526;-66
2022/04/11 01:46:15;;;;;;;29.70;15.60;;;6.60;42.30;;;;;;5072215;28;20187;-66
2022/04/11 01:48:41;;;;;;;29.08;17.73;;;6.20;42.00;;;;;;5057315;28;20211;-66
2022/04/11 01:51:07;;;;;;;34.70;15.90;;;6.50;40.70;;;;;;5070659;28;20194;-66
2022/04/11 01:53:33;;;;;;;26.23;16.13;;;6.80;40.40;;;;;;5073523;28;20178;-66
2022/04/11 01:55:58;;;;;;;31.00;16.30;;;6.40;40.70;;;;;;5065382;28;20549;-66
2022/04/11 01:58:24;;;;;;;32.40;18.00;;;6.30;41.20;;;;;;5058499;28;20192;-66
2022/04/11 02:00:50;;;;;;;27.80;15.70;;;6.40;41.60;;;;;;5073214;28;20792;-66
2022/04/11 02:03:16;;;;;;;31.53;16.87;;;6.10;42.10;;;;;;5072335;28;20424;-66
2022/04/11 02:05:43;;;;;;;44.43;18.90;;;6.10;42.50;;;;;;5061487;28;20421;-66
2022/04/11 02:08:13;;;;;;;26.15;15.45;;;6.40;42.10;;;;;;5066686;28;20559;-66
2022/04/11 02:10:39;;;;;;;34.08;16.98;;;6.20;42.20;;;;;;5064457;28;20211;-66
2022/04/11 02:13:06;;;;;;;29.90;16.73;;;6.10;42.00;;;;;;5067890;28;20207;-66
2022/04/11 02:15:32;;;;;;;28.67;15.60;;;6.10;42.60;;;;;;5109122;22;20233;-67
2022/04/11 02:17:57;;;;;;;35.95;18.25;;;6.20;42.20;;;;;;5093208;28;20181;-67
2022/04/11 02:20:23;;;;;;;33.00;18.33;;;6.30;41.90;;;;;;5107106;28;20183;-67
2022/04/11 02:22:57;;;;;;;31.93;17.60;;;6.40;42.50;;;;;;5103064;28;20174;-67
2022/04/11 02:25:25;;;;;;;31.08;17.00;;;6.50;41.30;;;;;;5104613;28;20229;-67
2022/04/11 02:27:54;;;;;;;31.98;18.48;;;6.60;42.70;;;;;;5103070;28;20216;-67
2022/04/11 02:30:22;;;;;;;30.70;17.00;;;6.70;43.50;;;;;;5090422;28;20597;-67
2022/04/11 02:32:49;;;;;;;36.08;16.88;;;6.40;42.60;;;;;;5095678;28;20736;-66
2022/04/11 02:35:16;;;;;;;25.52;16.02;;;6.30;42.50;;;;;;5088281;28;20533;-67
2022/04/11 02:37:44;;;;;;;35.30;17.48;;;6.40;42.30;;;;;;5106045;28;20194;-67
2022/04/11 02:40:12;;;;;;;33.33;16.63;;;6.70;42.60;;;;;;5101011;28;20188;-67
2022/04/11 02:42:41;;;;;;;29.38;17.13;;;6.40;42.40;;;;;;5092831;28;20178;-67
2022/04/11 02:45:08;;;;;;;35.40;17.05;;;6.50;42.30;;;;;;5093482;28;20197;-67
2022/04/11 02:47:34;;;;;;;27.63;16.23;;;6.50;41.90;;;;;;5108520;28;20182;-67
2022/04/11 02:49:59;;;;;;;30.30;16.17;;;6.60;41.70;;;;;;5106844;28;20243;-67
2022/04/11 02:52:25;;;;;;;28.83;17.07;;;6.70;41.00;;;;;;5084452;28;20693;-67
2022/04/11 02:54:51;;;;;;;28.80;16.60;;;6.50;42.10;;;;;;5101249;28;20186;-67
2022/04/11 02:57:17;;;;;;;29.53;16.67;;;6.50;41.80;;;;;;5102824;28;20174;-67
2022/04/11 02:59:42;;;;;;;28.47;16.80;;;6.30;42.10;;;;;;5072945;28;20297;-67
2022/04/11 03:02:08;;;;;;;37.37;15.83;;;6.60;42.60;;;;;;5099384;28;20182;-67
2022/04/11 03:04:33;;;;;;;29.20;16.53;;;6.30;43.20;;;;;;5101677;28;20208;-67
2022/04/11 03:06:59;;;;;;;25.90;15.73;;;6.30;44.90;;;;;;5104488;28;20682;-67
2022/04/11 03:09:25;;;;;;;36.20;16.67;;;6.10;43.60;;;;;;5098698;28;20191;-67
2022/04/11 03:11:50;;;;;;;26.97;15.57;;;6.00;44.30;;;;;;5103342;28;20238;-67
2022/04/11 03:14:16;;;;;;;35.37;16.17;;;6.20;45.10;;;;;;5103764;28;20232;-67
2022/04/11 03:16:41;;;;;;;26.00;16.10;;;5.50;45.70;;;;;;5103807;28;20598;-67
2022/04/11 03:19:07;;;;;;;29.20;16.53;;;5.20;47.60;;;;;;5111943;28;20295;-67
2022/04/11 03:21:33;;;;;;;26.70;15.30;;;5.60;47.10;;;;;;5102434;28;20173;-67
2022/04/11 03:23:59;;;;;;;27.77;15.47;;;5.10;47.80;;;;;;5100487;28;21094;-67
2022/04/11 03:26:24;;;;;;;26.40;16.03;;;5.10;48.70;;;;;;5098117;28;20173;-67
2022/04/11 03:28:50;;;;;;;29.77;16.20;;;5.50;46.60;;;;;;5094721;28;20685;-67
2022/04/11 03:31:16;;;;;;;30.23;17.00;;;5.70;46.20;;;;;;5099920;28;20177;-66
2022/04/11 03:33:41;;;;;;;24.10;15.50;;;6.00;44.80;;;;;;5096223;28;20197;-67
2022/04/11 03:36:07;;;;;;;25.33;15.47;;;6.20;43.50;;;;;;5102641;28;20519;-67
2022/04/11 03:38:33;;;;;;;26.83;16.23;;;6.30;43.20;;;;;;5102207;28;20180;-67
2022/04/11 03:40:58;;;;;;;30.20;16.50;;;6.60;43.30;;;;;;5095228;28;20262;-67
2022/04/11 03:43:24;;;;;;;25.30;15.93;;;6.40;43.50;;;;;;5100556;28;20170;-67
2022/04/11 03:45:50;;;;;;;28.63;16.67;;;6.50;42.90;;;;;;5095338;28;20548;-67
2022/04/11 03:48:15;;;;;;;25.07;16.13;;;6.50;42.60;;;;;;5093835;28;20714;-67
2022/04/11 03:50:41;;;;;;;37.60;16.40;;;6.50;42.80;;;;;;5098213;28;20203;-67
2022/04/11 03:53:07;;;;;;;27.83;15.00;;;7.00;42.80;;;;;;5097675;28;20181;-66
2022/04/11 03:55:32;;;;;;;27.20;15.70;;;6.60;43.30;;;;;;5095096;28;20587;-66
2022/04/11 03:57:58;;;;;;;30.67;16.63;;;6.50;42.60;;;;;;5096647;28;20545;-67
2022/04/11 04:00:24;;;;;;;37.83;16.60;;;6.40;42.90;;;;;;5091962;28;20586;-67
2022/04/11 04:02:50;;;;;;;29.17;18.13;;;6.70;43.60;;;;;;5085348;28;20182;-67
2022/04/11 04:05:17;;;;;;;33.20;16.43;;;6.40;43.10;;;;;;5099699;28;20206;-67
2022/04/11 04:07:42;;;;;;;30.20;16.67;;;6.80;43.10;;;;;;5099539;28;20267;-67
2022/04/11 04:10:08;;;;;;;30.80;18.27;;;6.50;42.50;;;;;;5099631;28;20248;-67
2022/04/11 04:12:34;;;;;;;37.40;16.65;;;6.50;42.10;;;;;;5097374;28;20185;-67
2022/04/11 04:15:00;;;;;;;31.63;17.00;;;6.30;42.70;;;;;;5109921;28;20218;-67
2022/04/11 04:17:26;;;;;;;32.40;16.92;;;6.20;43.00;;;;;;5103604;28;20201;-67
2022/04/11 04:19:52;;;;;;;30.40;17.60;;;6.20;43.90;;;;;;5099514;28;20671;-67
2022/04/11 04:22:18;;;;;;;35.83;18.30;;;6.30;43.50;;;;;;5089820;28;20273;-67
2022/04/11 04:24:44;;;;;;;27.20;16.33;;;6.80;43.10;;;;;;5105414;28;20747;-67
2022/04/11 04:27:09;;;;;;;33.50;17.80;;;6.60;42.50;;;;;;5092211;28;20907;-67
2022/04/11 04:29:35;;;;;;;32.97;18.07;;;6.60;43.10;;;;;;5102825;28;20563;-67
2022/04/11 04:32:01;;;;;;;32.67;16.70;;;6.80;40.80;;;;;;5090183;28;20183;-67
2022/04/11 04:34:31;;;;;;;32.78;17.63;;;6.60;41.00;;;;;;5088842;28;20217;-67
2022/04/11 04:36:58;;;;;;;35.53;18.02;;;7.10;41.70;;;;;;5101673;28;20182;-67
2022/04/11 04:39:24;;;;;;;32.05;18.77;;;6.60;41.80;;;;;;5099492;28;20243;-67
2022/04/11 04:41:50;;;;;;;32.53;19.02;;;6.60;41.40;;;;;;5099662;28;20213;-67
2022/04/11 04:44:16;;;;;;;28.30;18.60;;;6.70;41.20;;;;;;5091612;28;20241;-67
2022/04/11 04:46:41;;;;;;;37.33;19.43;;;6.70;41.10;;;;;;5102566;28;20185;-67
2022/04/11 04:49:07;;;;;;;43.63;20.90;;;6.50;41.60;;;;;;5110353;28;20233;-67
2022/04/11 04:51:33;;;;;;;35.70;21.00;;;6.00;43.70;;;;;;5106107;28;20174;-67
2022/04/11 04:53:58;;;;;;;43.73;20.27;;;6.10;43.70;;;;;;5093811;28;20229;-67
2022/04/11 04:56:24;;;;;;;37.53;20.53;;;6.40;42.90;;;;;;5112245;28;20178;-67
2022/04/11 04:58:51;;;;;;;35.33;20.80;;;6.40;42.00;;;;;;5094355;28;20233;-67
2022/04/11 05:01:17;;;;;;;40.42;23.05;;;6.30;42.90;;;;;;5101768;28;20177;-67
2022/04/11 05:03:43;;;;;;;44.83;23.47;;;6.50;42.10;;;;;;5100375;28;20196;-67
2022/04/11 05:06:09;;;;;;;39.77;21.60;;;6.40;42.70;;;;;;5107395;28;20427;-67
2022/04/11 05:08:35;;;;;;;31.73;20.30;;;6.40;42.50;;;;;;5098472;28;20260;-67
2022/04/11 05:11:01;;;;;;;43.53;20.80;;;6.30;42.90;;;;;;5106485;28;20178;-66
2022/04/11 05:13:27;;;;;;;43.70;20.58;;;6.10;43.90;;;;;;5102724;28;20210;-66
2022/04/11 05:15:52;;;;;;;31.63;19.52;;;6.10;44.10;;;;;;5087579;28;20226;-67
2022/04/11 05:18:18;;;;;;;39.73;17.80;;;6.10;44.00;;;;;;5093457;28;20214;-67
2022/04/11 05:20:44;;;;;;;40.97;18.60;;;5.70;45.00;;;;;;5088969;28;20270;-66
2022/04/11 05:23:10;;;;;;;38.25;20.30;;;5.30;47.40;;;;;;5091480;28;20206;-67
2022/04/11 05:25:36;;;;;;;35.10;18.90;;;5.30;47.30;;;;;;5099367;28;20240;-67
2022/04/11 05:28:02;;;;;;;33.43;17.70;;;5.50;46.80;;;;;;5094852;28;20445;-67
2022/04/11 05:30:33;;;;;;;34.58;17.48;;;5.30;47.80;;;;;;5098437;28;20206;-67
2022/04/11 05:33:00;;;;;;;44.22;16.73;;;5.80;46.60;;;;;;5094821;28;20273;-67
2022/04/11 05:35:25;;;;;;;35.10;16.17;;;5.70;44.90;;;;;;5109911;28;20244;-67
2022/04/11 05:37:51;;;;;;;31.17;17.70;;;5.50;45.80;;;;;;5106189;28;20653;-66
2022/04/11 05:40:17;;;;;;;33.70;17.37;;;5.90;45.20;;;;;;5103800;28;20185;-67
2022/04/11 05:42:42;;;;;;;30.57;16.87;;;6.10;44.40;;;;;;5112395;28;20182;-66
2022/04/11 05:45:08;;;;;;;41.60;18.03;;;6.30;43.30;;;;;;5099145;28;20204;-67
2022/04/11 05:47:34;;;;;;;29.23;17.83;;;6.50;42.40;;;;;;5112487;28;20178;-67
2022/04/11 05:50:00;;;;;;;36.22;18.23;;;6.70;43.40;;;;;;5100711;28;20447;-67
2022/04/11 05:52:25;;;;;;;27.77;15.87;;;6.70;42.10;;;;;;5105218;28;20671;-66
2022/04/11 05:54:51;;;;;;;27.43;14.90;;;6.50;41.90;;;;;;5098069;28;20310;-67
2022/04/11 05:57:17;;;;;;;37.47;16.13;;;6.60;41.70;;;;;;5099508;28;20645;-67
2022/04/11 05:59:42;;;;;;;26.13;16.70;;;6.90;41.50;;;;;;5101770;28;20185;-66
2022/04/11 06:02:10;;;;;;;30.60;14.77;;;6.90;40.60;;;;;;5087493;28;20299;-68
2022/04/11 06:04:37;;;;;;;28.85;16.40;;;6.70;42.10;;;;;;5102001;28;20190;-68
2022/04/11 06:07:03;;;;;;;26.38;17.10;;;6.60;43.00;;;;;;5088630;28;20187;-69
2022/04/11 06:09:30;;;;;;;29.92;15.80;;;6.50;44.00;;;;;;5088484;28;20571;-68
2022/04/11 06:11:55;;;;;;;28.52;15.05;;;6.70;42.20;;;;;;5109031;28;20173;-73
2022/04/11 06:14:21;;;;;;;24.47;15.50;;;6.90;42.00;;;;;;5095550;28;20213;-72
2022/04/11 06:16:47;;;;;;;29.83;15.83;;;6.30;44.80;;;;;;5094110;28;20675;-70
2022/04/11 06:19:13;;;;;;;34.20;15.53;;;7.10;42.60;;;;;;5074671;28;20263;-70
2022/04/11 06:21:50;;;;;;;27.30;15.70;;;7.50;39.70;;;;;;5109387;28;20174;-70
2022/04/11 06:24:16;;;;;;;30.95;15.73;;;7.50;39.60;;;;;;5094509;28;20523;-70
2022/04/11 06:26:41;;;;;;;30.63;17.20;;;7.00;41.60;;;;;;5090463;28;20617;-69
2022/04/11 06:29:07;;;;;;;26.87;16.07;;;7.00;42.70;;;;;;5079147;28;20213;-69
2022/04/11 06:31:32;;;;;;;26.63;15.40;;;7.00;42.20;;;;;;5089203;28;21899;-69
2022/04/11 06:33:58;;;;;;;31.13;17.00;;;7.00;42.30;;;;;;5077643;28;20282;-70
2022/04/11 06:36:24;;;;;;;25.37;15.87;;;7.40;41.70;;;;;;5093028;28;20197;-69
2022/04/11 06:38:49;;;;;;;31.50;16.13;;;8.00;38.60;;;;;;5086161;28;20538;-69
2022/04/11 06:41:15;;;;;;;26.93;14.40;;;8.50;37.70;;;;;;5081928;28;20705;-70
2022/04/11 06:43:40;;;;;;;28.17;15.50;;;8.30;36.80;;;;;;5092778;28;20665;-71
2022/04/11 06:46:06;;;;;;;26.27;15.00;;;8.70;36.40;;;;;;5098257;28;20294;-72
2022/04/11 06:48:32;;;;;;;30.03;15.07;;;8.80;34.70;;;;;;5095927;28;20190;-71
2022/04/11 06:50:57;;;;;;;22.07;13.40;;;8.60;36.50;;;;;;5102439;28;20170;-71
2022/04/11 06:53:23;;;;;;;24.53;14.90;;;9.00;35.40;;;;;;5104584;28;20641;-71
2022/04/11 06:55:48;;;;;;;37.13;14.40;;;9.30;35.00;;;;;;5087589;28;20247;-70
2022/04/11 06:58:18;;;;;;;21.50;13.30;;;7.70;37.80;;;;;;5098398;28;20174;-71
2022/04/11 07:00:44;;;;;;;23.67;13.50;;;7.50;38.90;;;;;;5104181;28;20170;-72
2022/04/11 07:03:10;;;;;;;29.52;14.05;;;7.60;38.10;;;;;;5100900;28;20202;-70
2022/04/11 07:05:37;;;;;;;20.20;13.30;;;8.20;36.90;;;;;;5089857;28;20299;-70
2022/04/11 07:08:04;;;;;;;21.85;13.30;;;8.60;36.50;;;;;;5098310;28;20550;-70
2022/04/11 07:10:30;;;;;;;26.00;13.65;;;8.70;35.00;;;;;;5093534;28;20213;-70
2022/04/11 07:12:56;;;;;;;24.80;12.93;;;9.40;35.00;;;;;;5092623;28;20166;-71
2022/04/11 07:15:22;;;;;;;23.20;12.30;;;10.20;31.30;;;;;;5100881;28;20355;-70
2022/04/11 07:17:47;;;;;;;24.77;11.70;;;9.60;31.10;;;;;;5099470;28;20796;-71
2022/04/11 07:20:14;;;;;;;27.63;10.33;;;8.90;32.40;;;;;;5095839;28;20239;-71
2022/04/11 07:22:39;;;;;;;19.63;11.00;;;8.80;33.00;;;;;;5111476;28;20592;-71
2022/04/11 07:25:05;;;;;;;15.37;9.77;;;9.50;32.90;;;;;;5111730;28;20259;-71
2022/04/11 07:27:31;;;;;;;10.40;6.40;;;9.60;30.80;;;;;;5106075;28;20200;-71
2022/04/11 07:29:57;;;;;;;17.70;7.03;;;10.10;27.30;;;;;;5091990;28;20570;-71
2022/04/11 07:32:22;;;;;;;11.63;6.70;;;10.90;26.50;;;;;;5104277;28;20298;-70
2022/04/11 07:34:48;;;;;;;9.07;5.30;;;11.10;26.00;;;;;;5095455;28;20202;-71
2022/04/11 07:37:14;;;;;;;17.60;6.47;;;11.10;26.00;;;;;;5095152;28;20176;-72
2022/04/11 07:39:39;;;;;;;9.83;6.10;;;11.10;25.80;;;;;;5092272;28;20174;-71
2022/04/11 07:42:05;;;;;;;8.80;5.73;;;11.40;24.40;;;;;;5107624;28;20670;-71
2022/04/11 07:44:31;;;;;;;8.13;6.00;;;11.70;24.20;;;;;;5105251;28;20202;-71
2022/04/11 07:46:57;;;;;;;9.53;5.47;;;12.20;24.60;;;;;;5090622;28;20421;-72
2022/04/11 07:49:22;;;;;;;8.17;5.60;;;12.20;23.70;;;;;;5095474;28;20732;-72
2022/04/11 07:51:48;;;;;;;8.83;5.23;;;12.20;23.00;;;;;;5107069;28;20170;-71
2022/04/11 07:54:14;;;;;;;8.37;5.60;;;12.50;21.90;;;;;;5111146;28;20204;-71
2022/04/11 07:56:39;;;;;;;8.97;5.50;;;12.60;22.90;;;;;;5072461;28;20257;-71
2022/04/11 07:59:05;;;;;;;10.93;5.90;;;12.40;25.40;;;;;;5100117;28;20510;-70
2022/04/11 08:01:31;;;;;;;12.60;5.53;;;11.80;24.80;;;;;;5102698;28;20174;-71
2022/04/11 08:03:56;;;;;;;11.77;5.70;;;12.00;23.80;;;;;;5102469;28;20202;-71
2022/04/11 08:06:22;;;;;;;7.97;5.20;;;12.00;23.60;;;;;;5111147;28;20280;-71
2022/04/11 08:08:48;;;;;;;8.17;5.07;;;11.90;24.00;;;;;;5102960;28;20178;-71
2022/04/11 08:11:17;;;;;;;8.13;5.37;;;11.80;23.80;;;;;;5102285;28;20183;-71
2022/04/11 08:13:44;;;;;;;11.63;5.10;;;12.30;23.40;;;;;;5091186;28;20258;-71
2022/04/11 08:16:10;;;;;;;13.80;5.23;;;12.10;23.20;;;;;;5094401;28;20429;-74
2022/04/11 08:18:36;;;;;;;8.10;4.40;;;12.40;22.50;;;;;;5078380;28;20419;-70
2022/04/11 08:21:02;;;;;;;8.50;4.93;;;12.50;23.00;;;;;;5074785;28;20459;-69
2022/04/11 08:23:28;;;;;;;7.33;4.23;;;12.40;22.50;;;;;;5094662;28;20422;-68
2022/04/11 08:25:54;;;;;;;7.77;5.00;;;12.40;22.50;;;;;;5082467;28;20795;-71
2022/04/11 08:28:20;;;;;;;9.60;4.40;;;12.80;24.50;;;;;;5098154;28;20170;-70
2022/04/11 08:30:46;;;;;;;7.27;4.50;;;12.10;21.90;;;;;;5102952;22;20552;-76
2022/04/11 08:33:12;;;;;;;9.43;4.53;;;12.10;22.30;;;;;;5116351;27;20679;-77
2022/04/11 08:35:38;;;;;;;7.70;4.37;;;12.40;23.40;;;;;;5119713;28;20403;-76
2022/04/11 08:38:04;;;;;;;12.03;4.90;;;12.70;21.70;;;;;;5120346;28;20759;-78
2022/04/11 08:40:30;;;;;;;6.17;4.00;;;12.90;20.50;;;;;;5120521;28;20514;-78
2022/04/11 08:42:55;;;;;;;5.80;4.17;;;12.50;21.20;;;;;;5119085;28;20218;-78
2022/04/11 08:45:23;;;;;;;5.80;4.00;;;12.80;21.30;;;;;;5119946;28;20415;-78
2022/04/11 08:47:50;;;;;;;7.33;3.90;;;13.40;20.00;;;;;;5120018;28;20178;-78
2022/04/11 08:50:17;;;;;;;7.60;4.00;;;13.50;19.80;;;;;;5119307;28;20451;-78
2022/04/11 08:52:43;;;;;;;6.73;4.10;;;13.50;19.50;;;;;;5119247;28;20458;-78
2022/04/11 08:55:10;;;;;;;9.47;4.97;;;13.10;20.10;;;;;;5119865;28;20425;-78
2022/04/11 08:57:37;;;;;;;5.30;3.80;;;13.20;21.00;;;;;;5098435;28;20435;-78
2022/04/11 09:00:09;;;;;;;8.23;3.93;;;13.40;19.70;;;;;;5118491;28;20420;-77
2022/04/11 09:02:35;;;;;;;9.80;3.87;;;13.70;20.00;;;;;;5114870;28;20442;-77
2022/04/11 09:05:02;;;;;;;6.73;3.60;;;13.70;20.30;;;;;;5113666;28;20407;-79
2022/04/11 09:07:27;;;;;;;8.60;4.07;;;13.90;19.50;;;;;;5118423;28;20423;-77
2022/04/11 09:09:58;;;;;;;6.53;3.80;;;14.30;19.80;;;;;;5117526;28;20565;-79
2022/04/11 09:12:24;;;;;;;7.77;3.73;;;13.80;19.80;;;;;;5116875;28;20195;-79
2022/04/11 09:14:56;;;;;;;6.60;4.00;;;14.10;19.00;;;;;;5118007;28;20427;-79
2022/04/11 09:17:25;;;;;;;6.27;3.87;;;13.90;19.90;;;;;;5116819;28;20172;-79
2022/04/11 09:20:10;;;;;;;6.80;3.93;;;14.10;19.80;;;;;;5116952;28;20423;-79
2022/04/11 09:22:35;;;;;;;8.70;4.40;;;14.50;19.70;;;;;;5116203;28;20456;-79
2022/04/11 09:25:12;;;;;;;5.13;3.40;;;14.60;18.50;;;;;;5117727;28;20508;-78
2022/04/11 09:27:38;;;;;;;5.80;3.90;;;14.90;17.90;;;;;;5117677;28;20201;-77
2022/04/11 09:30:24;;;;;;;7.30;4.13;;;14.70;18.40;;;;;;5117231;28;20489;-78
2022/04/11 09:32:56;;;;;;;6.20;3.93;;;14.70;18.80;;;;;;5116901;28;20874;-79
2022/04/11 09:35:28;;;;;;;9.77;3.60;;;14.60;17.80;;;;;;5109157;28;20430;-78
2022/04/11 09:38:14;;;;;;;6.17;3.70;;;14.90;17.90;;;;;;5116866;28;20411;-77
2022/04/11 09:40:50;;;;;;;8.03;3.77;;;15.50;16.40;;;;;;5111681;28;20418;-77
2022/04/11 09:43:23;;;;;;;5.20;3.90;;;15.40;18.40;;;;;;5098050;28;20422;-78
2022/04/11 09:45:51;;;;;;;4.93;3.33;;;15.50;18.20;;;;;;5116525;28;20479;-78
2022/04/11 09:48:21;;;;;;;9.10;3.80;;;14.90;18.30;;;;;;5116744;28;20442;-79
2022/04/11 09:50:48;;;;;;;5.30;3.30;;;15.70;17.90;;;;;;5116730;28;20552;-78
2022/04/11 09:53:19;;;;;;;6.33;3.20;;;16.20;16.50;;;;;;5116394;28;20530;-79
2022/04/11 09:55:54;;;;;;;6.50;3.83;;;16.40;16.20;;;;;;5117083;28;20426;-78
2022/04/11 09:58:22;;;;;;;4.37;3.50;;;16.80;15.50;;;;;;5117081;28;20443;-79
2022/04/11 10:00:49;;;;;;;5.80;3.40;;;16.70;14.70;;;;;;5116692;28;20424;-79
2022/04/11 10:03:16;;;;;;;5.30;3.30;;;15.60;15.30;;;;;;5115728;28;20801;-78
2022/04/11 10:05:42;;;;;;;5.23;3.37;;;15.80;16.30;;;;;;5116550;28;20431;-79
2022/04/11 10:08:12;;;;;;;4.90;3.73;;;16.30;17.40;;;;;;5122056;28;20420;-78
2022/04/11 10:10:39;;;;;;;5.53;3.70;;;16.30;17.50;;;;;;5122772;28;20193;-77
2022/04/11 10:13:13;;;;;;;6.20;3.60;;;16.50;16.70;;;;;;5128062;28;20424;-77
2022/04/11 10:15:39;;;;;;;6.07;4.00;;;16.30;18.60;;;;;;5102482;28;20488;-79
2022/04/11 10:18:07;;;;;;;4.90;3.47;;;16.60;15.60;;;;;;5128524;28;20423;-77
2022/04/11 10:20:38;;;;;;;7.23;4.30;;;16.80;16.90;;;;;;5126460;28;20419;-78
2022/04/11 10:23:13;;;;;;;5.57;3.60;;;17.50;16.10;;;;;;5127014;28;20438;-77
2022/04/11 10:25:47;;;;;;;4.90;3.23;;;17.70;14.70;;;;;;5124717;28;20422;-78
2022/04/11 10:28:17;;;;;;;7.10;3.47;;;18.10;15.50;;;;;;5120110;28;20431;-78
2022/04/11 10:30:44;;;;;;;8.80;3.43;;;18.30;15.50;;;;;;5118474;28;20448;-77
2022/04/11 10:33:10;;;;;;;5.27;3.40;;;18.60;17.00;;;;;;5118418;28;20427;-79
2022/04/11 10:35:44;;;;;;;5.37;3.40;;;18.60;14.70;;;;;;5118803;28;20907;-78
2022/04/11 10:38:11;;;;;;;5.47;3.37;;;19.20;14.40;;;;;;5118065;28;20182;-78
2022/04/11 10:40:46;;;;;;;6.30;3.60;;;19.10;12.70;;;;;;5117972;28;20435;-77
2022/04/11 10:43:13;;;;;;;5.53;3.90;;;19.20;11.70;;;;;;5101211;28;20429;-79
2022/04/11 10:45:42;;;;;;;9.00;3.60;;;19.60;13.80;;;;;;5118564;28;20463;-79
2022/04/11 10:48:10;;;;;;;6.93;3.63;;;19.40;13.30;;;;;;5101363;28;20464;-79
2022/04/11 10:50:43;;;;;;;4.80;3.60;;;17.90;12.90;;;;;;5119122;28;20466;-78
2022/04/11 10:53:24;;;;;;;5.00;3.47;;;18.60;13.90;;;;;;5101295;28;20504;-78
2022/04/11 10:56:07;;;;;;;5.10;3.33;;;19.20;12.20;;;;;;5127126;28;20484;-78
2022/04/11 10:58:47;;;;;;;6.80;3.50;;;19.40;14.70;;;;;;5119423;28;20497;-78
2022/04/11 11:01:13;;;;;;;4.70;3.70;;;19.90;17.00;;;;;;5112781;28;20471;-79
2022/04/11 11:03:42;;;;;;;6.70;3.87;;;20.60;11.60;;;;;;5118430;28;20788;-79
2022/04/11 11:06:16;;;;;;;6.13;3.10;;;21.80;9.80;;;;;;5100939;28;20423;-79
2022/04/11 11:08:42;;;;;;;6.50;3.30;;;22.30;11.90;;;;;;5118540;28;20918;-80
2022/04/11 11:11:27;;;;;;;6.87;3.67;;;23.10;11.50;;;;;;5118803;28;20524;-79
2022/04/11 11:13:55;;;;;;;6.63;3.63;;;23.70;8.00;;;;;;5118181;28;20428;-78
2022/04/11 11:16:21;;;;;;;7.33;3.10;;;23.90;9.20;;;;;;5119029;28;20413;-79
2022/04/11 11:18:50;;;;;;;9.90;3.57;;;23.20;8.50;;;;;;5117639;28;20457;-78
2022/04/11 11:21:32;;;;;;;10.50;3.50;;;23.80;8.20;;;;;;5117705;28;20197;-79
2022/04/11 11:24:08;;;;;;;8.53;3.30;;;23.20;9.80;;;;;;5118591;28;20415;-79
2022/04/11 11:26:45;;;;;;;5.60;3.20;;;23.80;8.40;;;;;;5118645;28;20615;-81
2022/04/11 11:29:22;;;;;;;5.97;3.47;;;24.20;8.90;;;;;;5117780;28;20549;-79
2022/04/11 11:31:50;;;;;;;4.67;3.30;;;24.00;8.70;;;;;;5119659;28;20450;-78
2022/04/11 11:34:20;;;;;;;4.93;3.33;;;24.40;7.70;;;;;;5120951;28;20424;-80
2022/04/11 11:36:47;;;;;;;5.20;3.23;;;25.30;6.60;;;;;;5101071;28;20415;-80
2022/04/11 11:39:17;;;;;;;5.70;3.40;;;25.00;6.80;;;;;;5117814;28;20426;-80
2022/04/11 11:41:50;;;;;;;4.60;3.20;;;24.60;8.40;;;;;;5118163;28;20451;-80
2022/04/11 11:44:16;;;;;;;4.67;2.90;;;25.50;6.10;;;;;;5118706;28;20487;-79
2022/04/11 11:46:45;;;;;;;6.23;3.43;;;26.40;5.40;;;;;;5118664;28;20415;-80
2022/04/11 11:49:11;;;;;;;5.20;3.20;;;24.70;10.00;;;;;;5118039;28;20815;-78
2022/04/11 11:51:36;;;;;;;4.17;3.10;;;25.30;8.60;;;;;;5117519;28;20435;-80
2022/04/11 11:54:02;;;;;;;6.80;3.00;;;25.90;6.00;;;;;;5118257;28;20173;-79
2022/04/11 11:56:42;;;;;;;4.50;2.60;;;26.80;7.50;;;;;;5118724;28;20605;-77
2022/04/11 11:59:08;;;;;;;3.53;2.43;;;27.70;5.10;;;;;;5113613;28;20181;-77
2022/04/11 12:01:34;;;;;;;3.97;2.70;;;27.90;6.90;;;;;;5113609;28;20443;-78
2022/04/11 12:06:44;;;;;;;3.70;2.63;;;27.90;3.10;;;;;;5110406;28;20188;-79
2022/04/11 12:09:10;;;;;;;4.90;2.90;;;28.60;2.10;;;;;;5115633;28;20454;-79
2022/04/11 12:11:36;;;;;;;4.87;2.63;;;27.30;5.70;;;;;;5115277;28;20447;-78
2022/04/11 12:14:05;;;;;;;5.53;2.63;;;28.00;7.30;;;;;;5116372;28;20427;-78
2022/04/11 12:16:34;;;;;;;4.17;2.60;;;27.60;4.30;;;;;;5113195;28;20174;-79
2022/04/11 12:19:01;;;;;;;5.10;2.73;;;28.20;3.10;;;;;;5118545;28;20415;-79
2022/04/11 12:21:35;;;;;;;6.70;2.60;;;28.80;2.50;;;;;;5116856;28;20460;-79
2022/04/11 12:24:03;;;;;;;12.87;2.70;;;28.50;4.30;;;;;;5117564;28;20423;-78
2022/04/11 12:26:32;;;;;;;5.63;2.70;;;28.10;5.40;;;;;;5117668;28;20416;-77
2022/04/11 12:29:02;;;;;;;4.47;3.20;;;28.70;5.70;;;;;;5118151;28;20419;-79
2022/04/11 12:31:28;;;;;;;5.40;2.70;;;30.00;5.40;;;;;;5117761;28;20533;-78
2022/04/11 12:33:54;;;;;;;5.33;3.00;;;30.10;1.00;;;;;;5117848;28;20427;-78
2022/04/11 12:36:27;;;;;;;3.93;2.60;;;30.00;3.30;;;;;;5118575;28;20209;-78
2022/04/11 12:39:03;;;;;;;4.77;3.03;;;30.20;3.60;;;;;;5126901;28;20197;-78
2022/04/11 12:41:30;;;;;;;4.03;3.13;;;30.40;4.40;;;;;;5127230;28;20434;-78
2022/04/11 12:44:18;;;;;;;4.97;3.40;;;29.10;3.40;;;;;;5127670;28;20431;-79